createdAt,value
2023-05-02T00:00:45.474Z,29.17
2023-05-02T00:03:14.222Z,22.77
2023-05-02T00:05:43.007Z,22.53
2023-05-02T00:08:11.991Z,27.43
2023-05-02T00:10:41.701Z,27.63
2023-05-02T00:13:09.951Z,27.83
2023-05-02T00:15:38.302Z,24.10
2023-05-02T00:18:06.712Z,25.20
2023-05-02T00:20:35.004Z,30.10
2023-05-02T00:23:03.250Z,29.00
2023-05-02T00:25:31.673Z,31.10
2023-05-02T00:28:01.322Z,27.53
2023-05-02T00:30:29.775Z,28.07
2023-05-02T00:32:58.363Z,25.23
2023-05-02T00:35:26.819Z,28.63
2023-05-02T00:37:55.084Z,28.70
2023-05-02T00:40:23.345Z,29.70
2023-05-02T00:42:51.576Z,31.90
2023-05-02T00:45:21.237Z,31.77
2023-05-02T00:47:50.635Z,31.00
2023-05-02T00:50:19.426Z,27.87
2023-05-02T00:52:48.332Z,28.17
2023-05-02T00:55:16.831Z,30.37
2023-05-02T00:57:45.355Z,33.83
2023-05-02T01:00:15.134Z,34.70
2023-05-02T01:02:53.462Z,35.17
2023-05-02T01:05:28.946Z,35.43
2023-05-02T01:08:11.717Z,30.80
2023-05-02T01:10:53.831Z,31.90
2023-05-02T01:13:25.411Z,36.13
2023-05-02T01:15:55.238Z,36.90
2023-05-02T01:18:27.127Z,34.40
2023-05-02T01:21:00.261Z,34.07
2023-05-02T01:23:36.204Z,35.17
2023-05-02T01:26:16.193Z,32.57
2023-05-02T01:28:58.436Z,31.80
2023-05-02T01:31:28.396Z,33.33
2023-05-02T01:33:59.916Z,30.27
2023-05-02T01:36:31.592Z,30.87
2023-05-02T01:39:01.835Z,29.97
2023-05-02T01:41:32.547Z,29.13
2023-05-02T01:44:04.938Z,36.90
2023-05-02T01:46:38.209Z,31.20
2023-05-02T01:49:09.307Z,36.37
2023-05-02T01:51:44.233Z,35.73
2023-05-02T01:54:15.050Z,34.27
2023-05-02T01:56:45.559Z,27.80
2023-05-02T01:59:19.554Z,34.63
2023-05-02T02:01:49.526Z,29.07
2023-05-02T02:04:20.586Z,33.80
2023-05-02T02:06:55.139Z,27.77
2023-05-02T02:09:23.484Z,28.83
2023-05-02T02:11:57.416Z,28.27
2023-05-02T02:14:32.812Z,27.00
2023-05-02T02:17:06.356Z,27.70
2023-05-02T02:19:35.407Z,29.40
2023-05-02T02:22:06.188Z,30.63
2023-05-02T02:24:36.661Z,28.80
2023-05-02T02:27:05.129Z,38.97
2023-05-02T02:29:36.782Z,29.63
2023-05-02T02:32:05.164Z,30.20
2023-05-02T02:34:33.416Z,27.10
2023-05-02T02:37:06.079Z,25.60
2023-05-02T02:39:47.935Z,27.47
2023-05-02T02:42:24.017Z,35.13
2023-05-02T02:45:05.967Z,28.00
2023-05-02T02:47:43.385Z,28.63
2023-05-02T02:50:17.767Z,23.60
2023-05-02T02:52:54.791Z,22.77
2023-05-02T02:55:33.084Z,24.60
2023-05-02T02:58:08.574Z,28.10
2023-05-02T03:00:38.595Z,25.20
2023-05-02T03:03:09.018Z,26.13
2023-05-02T03:05:37.708Z,29.23
2023-05-02T03:08:06.675Z,28.40
2023-05-02T03:10:35.566Z,24.00
2023-05-02T03:13:04.089Z,22.43
2023-05-02T03:16:06.059Z,26.70
2023-05-02T03:18:35.807Z,27.17
2023-05-02T03:21:04.349Z,22.53
2023-05-02T03:23:33.123Z,26.87
2023-05-02T03:26:01.389Z,22.43
2023-05-02T03:28:29.787Z,22.43
2023-05-02T03:30:58.956Z,22.37
2023-05-02T03:33:28.112Z,22.53
2023-05-02T03:35:57.879Z,27.33
2023-05-02T03:38:26.849Z,26.03
2023-05-02T03:40:58.456Z,20.70
2023-05-02T03:43:27.842Z,23.97
2023-05-02T03:45:57.158Z,26.90
2023-05-02T03:48:27.440Z,22.17
2023-05-02T03:50:57.163Z,24.37
2023-05-02T03:53:25.998Z,22.80
2023-05-02T03:55:59.157Z,19.20
2023-05-02T03:58:38.259Z,22.30
2023-05-02T04:01:14.993Z,35.23
2023-05-02T04:03:44.960Z,27.70
2023-05-02T04:06:16.783Z,38.40
2023-05-02T04:08:48.656Z,32.03
2023-05-02T04:11:16.910Z,20.57
2023-05-02T04:13:45.606Z,20.73
2023-05-02T04:16:13.916Z,21.17
2023-05-02T04:18:42.318Z,22.27
2023-05-02T04:21:12.394Z,24.00
2023-05-02T04:23:42.425Z,23.73
2023-05-02T04:26:10.785Z,25.47
2023-05-02T04:28:46.207Z,26.07
2023-05-02T04:31:17.039Z,30.93
2023-05-02T04:33:48.937Z,25.87
2023-05-02T04:36:20.794Z,24.17
2023-05-02T04:38:50.711Z,25.17
2023-05-02T04:41:19.545Z,22.17
2023-05-02T04:43:53.971Z,29.37
2023-05-02T04:46:22.419Z,29.70
2023-05-02T04:48:51.004Z,26.50
2023-05-02T04:51:19.602Z,27.23
2023-05-02T04:53:52.014Z,26.50
2023-05-02T04:56:21.872Z,25.17
2023-05-02T04:58:51.459Z,27.40
2023-05-02T05:01:19.860Z,28.07
2023-05-02T05:03:49.343Z,24.87
2023-05-02T05:06:19.392Z,27.60
2023-05-02T05:08:48.361Z,23.77
2023-05-02T05:11:19.533Z,23.80
2023-05-02T05:13:48.409Z,27.13
2023-05-02T05:16:17.736Z,31.80
2023-05-02T05:18:47.304Z,27.87
2023-05-02T05:21:16.560Z,46.33
2023-05-02T05:23:46.266Z,30.27
2023-05-02T05:26:20.969Z,26.63
2023-05-02T05:28:51.329Z,21.20
2023-05-02T05:31:22.621Z,23.67
2023-05-02T05:33:54.891Z,21.97
2023-05-02T05:36:24.485Z,22.10
2023-05-02T05:38:52.983Z,24.80
2023-05-02T05:41:24.731Z,22.57
2023-05-02T05:43:59.511Z,20.03
2023-05-02T05:46:29.187Z,15.57
2023-05-02T05:48:57.796Z,20.00
2023-05-02T05:51:28.755Z,15.03
2023-05-02T05:53:59.766Z,10.20
2023-05-02T05:56:29.776Z,7.73
2023-05-02T05:59:14.420Z,22.13
2023-05-02T06:01:42.899Z,13.73
2023-05-02T06:04:12.123Z,5.40
2023-05-02T06:06:43.594Z,7.93
2023-05-02T06:09:11.920Z,11.67
2023-05-02T06:11:41.568Z,5.20
2023-05-02T06:14:10.189Z,6.10
2023-05-02T06:16:38.687Z,8.20
2023-05-02T06:19:07.984Z,6.90
2023-05-02T06:21:37.868Z,5.70
2023-05-02T06:24:06.914Z,5.17
2023-05-02T06:26:35.264Z,10.37
2023-05-02T06:29:04.985Z,8.63
2023-05-02T06:31:33.388Z,4.43
2023-05-02T06:34:01.747Z,4.03
2023-05-02T06:36:30.053Z,6.27
2023-05-02T06:38:58.279Z,7.73
2023-05-02T06:41:26.626Z,4.43
2023-05-02T06:43:54.940Z,4.90
2023-05-02T06:46:24.606Z,7.70
2023-05-02T06:48:52.884Z,8.80
2023-05-02T06:51:22.476Z,7.13
2023-05-02T06:53:50.766Z,7.27
2023-05-02T06:56:19.128Z,2.90
2023-05-02T06:58:47.377Z,5.03
2023-05-02T07:01:15.823Z,7.83
2023-05-02T07:03:47.618Z,6.57
2023-05-02T07:06:16.068Z,5.30
2023-05-02T07:08:44.462Z,6.13
2023-05-02T07:11:12.703Z,9.33
2023-05-02T07:13:41.057Z,5.50
2023-05-02T07:16:09.675Z,5.13
2023-05-02T07:18:38.131Z,3.80
2023-05-02T07:21:08.591Z,7.00
2023-05-02T07:23:37.025Z,5.80
2023-05-02T07:26:07.227Z,20.97
2023-05-02T07:28:35.921Z,12.80
2023-05-02T07:31:04.519Z,11.07
2023-05-02T07:33:32.848Z,6.03
2023-05-02T07:36:03.336Z,11.20
2023-05-02T07:38:33.026Z,6.30
2023-05-02T07:41:02.061Z,5.37
2023-05-02T07:43:30.447Z,3.47
2023-05-02T07:45:58.796Z,3.80
2023-05-02T07:48:27.892Z,4.13
2023-05-02T07:50:56.324Z,3.27
2023-05-02T07:53:24.655Z,22.17
2023-05-02T07:55:54.408Z,25.40
2023-05-02T07:58:22.876Z,9.83
2023-05-02T08:00:51.353Z,3.43
2023-05-02T08:03:19.733Z,2.50
2023-05-02T08:05:48.129Z,3.57
2023-05-02T08:08:16.598Z,6.43
2023-05-02T08:10:46.993Z,6.97
2023-05-02T08:13:16.645Z,3.80
2023-05-02T08:15:45.111Z,5.57
2023-05-02T08:18:13.836Z,6.10
2023-05-02T08:20:42.114Z,6.37
2023-05-02T08:23:10.680Z,9.60
2023-05-02T08:25:38.957Z,7.07
2023-05-02T08:28:07.217Z,7.80
2023-05-02T08:30:36.861Z,7.00
2023-05-02T08:33:05.436Z,7.60
2023-05-02T08:35:33.819Z,8.53
2023-05-02T08:38:02.179Z,4.80
2023-05-02T08:43:07.172Z,4.80
2023-05-02T08:45:41.758Z,3.83
2023-05-02T08:48:11.850Z,6.53
2023-05-02T08:50:42.420Z,16.43
2023-05-02T08:53:11.503Z,12.97
2023-05-02T08:55:41.405Z,5.40
2023-05-02T08:58:10.788Z,4.93
2023-05-02T09:00:43.136Z,5.63
2023-05-02T09:03:23.738Z,4.70
2023-05-02T09:05:55.222Z,3.20
2023-05-02T09:08:24.812Z,4.17
2023-05-02T09:10:53.352Z,5.20
2023-05-02T09:13:36.689Z,3.47
2023-05-02T09:16:08.207Z,4.90
2023-05-02T09:18:37.928Z,7.07
2023-05-02T09:21:08.997Z,3.00
2023-05-02T09:23:39.178Z,4.13
2023-05-02T09:26:18.641Z,5.07
2023-05-02T09:28:48.121Z,5.97
2023-05-02T09:31:37.433Z,4.37
2023-05-02T09:34:11.506Z,7.90
2023-05-02T09:36:43.766Z,5.27
2023-05-02T09:39:13.643Z,6.10
2023-05-02T09:41:42.913Z,9.40
2023-05-02T09:44:12.606Z,5.70
2023-05-02T09:46:46.716Z,6.70
2023-05-02T09:49:18.753Z,2.60
2023-05-02T09:51:48.542Z,9.03
2023-05-02T09:54:37.064Z,4.60
2023-05-02T09:57:07.299Z,4.43
2023-05-02T09:59:35.819Z,8.67
2023-05-02T10:02:09.627Z,3.77
2023-05-02T10:04:40.023Z,6.30
2023-05-02T10:07:10.988Z,4.80
2023-05-02T10:09:44.753Z,7.07
2023-05-02T10:12:16.796Z,7.93
2023-05-02T10:14:50.778Z,4.20
2023-05-02T10:17:28.116Z,6.53
2023-05-02T10:20:01.768Z,5.30
2023-05-02T10:22:31.140Z,6.70
2023-05-02T10:25:01.133Z,9.87
2023-05-02T10:27:32.081Z,18.80
2023-05-02T10:30:02.444Z,11.33
2023-05-02T10:32:35.128Z,5.33
2023-05-02T10:35:05.624Z,5.57
2023-05-02T10:37:37.138Z,3.90
2023-05-02T10:40:06.975Z,4.07
2023-05-02T10:42:38.920Z,5.50
2023-05-02T10:45:13.289Z,5.47
2023-05-02T10:47:43.273Z,4.37
2023-05-02T10:50:11.940Z,5.37
2023-05-02T10:52:41.226Z,4.50
2023-05-02T10:55:21.050Z,6.90
2023-05-02T10:58:23.745Z,11.50
2023-05-02T11:00:52.196Z,2.77
2023-05-02T11:03:56.944Z,7.10
2023-05-02T11:06:26.082Z,10.30
2023-05-02T11:08:54.802Z,4.83
2023-05-02T11:11:42.642Z,3.40
2023-05-02T11:14:11.608Z,5.00
2023-05-02T11:17:08.804Z,4.67
2023-05-02T11:20:27.824Z,3.33
2023-05-02T11:23:22.642Z,3.50
2023-05-02T11:25:52.343Z,4.37
2023-05-02T11:28:47.868Z,3.47
2023-05-02T11:32:04.928Z,4.60
2023-05-02T11:34:45.009Z,3.63
2023-05-02T11:37:14.540Z,4.30
2023-05-02T11:39:44.320Z,3.30
2023-05-02T11:42:28.606Z,3.20
2023-05-02T11:44:58.241Z,12.30
2023-05-02T11:47:29.547Z,15.70
2023-05-02T11:50:00.252Z,5.73
2023-05-02T11:52:28.682Z,9.87
2023-05-02T11:54:58.576Z,5.73
2023-05-02T11:57:27.971Z,6.20
2023-05-02T11:59:58.919Z,4.30
2023-05-02T12:02:38.143Z,4.07
2023-05-02T12:05:07.629Z,5.90
2023-05-02T12:07:37.911Z,4.17
2023-05-02T12:10:09.403Z,3.17
2023-05-02T12:12:38.039Z,3.83
2023-05-02T12:15:07.449Z,5.13
2023-05-02T12:17:38.897Z,5.40
2023-05-02T12:20:09.128Z,5.97
2023-05-02T12:22:37.973Z,7.43
2023-05-02T12:25:09.248Z,3.60
2023-05-02T12:27:38.033Z,2.70
2023-05-02T12:30:07.593Z,8.13
2023-05-02T12:32:37.827Z,4.03
2023-05-02T12:35:07.655Z,3.70
2023-05-02T12:37:36.100Z,2.50
2023-05-02T12:40:05.161Z,2.13
2023-05-02T12:42:35.576Z,5.23
2023-05-02T12:45:03.927Z,3.97
2023-05-02T12:47:46.358Z,2.20
2023-05-02T12:50:15.014Z,3.73
2023-05-02T12:52:51.371Z,5.60
2023-05-02T12:55:20.316Z,7.53
2023-05-02T12:57:50.210Z,4.30
2023-05-02T13:00:19.270Z,2.93
2023-05-02T13:02:47.689Z,3.93
2023-05-02T13:05:16.466Z,2.17
2023-05-02T13:07:45.198Z,3.63
2023-05-02T13:10:13.844Z,4.07
2023-05-02T13:12:43.761Z,3.00
2023-05-02T13:15:15.167Z,4.13
2023-05-02T13:17:43.956Z,4.43
2023-05-02T13:20:13.535Z,4.40
2023-05-02T13:22:41.879Z,2.57
2023-05-02T13:25:10.721Z,2.50
2023-05-02T13:27:39.052Z,2.40
2023-05-02T13:30:09.789Z,4.20
2023-05-02T13:32:40.237Z,2.97
2023-05-02T13:35:09.834Z,2.40
2023-05-02T13:37:38.260Z,2.70
2023-05-02T13:40:08.104Z,4.00
2023-05-02T13:42:36.677Z,3.73
2023-05-02T13:45:06.572Z,5.67
2023-05-02T13:47:34.929Z,4.23
2023-05-02T13:50:04.982Z,7.67
2023-05-02T13:52:33.422Z,5.13
2023-05-02T13:55:02.298Z,4.67
2023-05-02T13:57:30.857Z,5.37
2023-05-02T13:59:59.126Z,4.70
2023-05-02T14:02:27.648Z,2.00
2023-05-02T14:04:56.044Z,2.17
2023-05-02T14:07:25.744Z,5.10
2023-05-02T14:09:54.033Z,3.47
2023-05-02T14:12:22.447Z,9.10
2023-05-02T14:14:50.850Z,6.30
2023-05-02T14:17:19.260Z,5.43
2023-05-02T14:19:47.478Z,13.60
2023-05-02T14:22:16.005Z,11.87
2023-05-02T14:24:45.929Z,5.50
2023-05-02T14:27:18.515Z,4.13
2023-05-02T14:29:46.957Z,3.50
2023-05-02T14:32:15.647Z,2.80
2023-05-02T14:34:43.886Z,3.33
2023-05-02T14:37:12.166Z,6.13
2023-05-02T14:39:42.522Z,7.60
2023-05-02T14:42:12.155Z,2.90
2023-05-02T14:44:40.494Z,5.03
2023-05-02T14:47:08.908Z,4.07
2023-05-02T14:49:37.348Z,4.97
2023-05-02T14:52:05.846Z,4.50
2023-05-02T14:54:34.161Z,7.33
2023-05-02T14:57:03.664Z,5.30
2023-05-02T14:59:33.600Z,4.83
2023-05-02T15:02:02.052Z,10.60
2023-05-02T15:04:31.192Z,15.73
2023-05-02T15:07:01.122Z,10.43
2023-05-02T15:09:29.639Z,7.70
2023-05-02T15:11:58.306Z,4.53
2023-05-02T15:14:26.927Z,4.03
2023-05-02T15:16:56.677Z,2.40
2023-05-02T15:19:25.180Z,4.00
2023-05-02T15:21:54.714Z,3.10
2023-05-02T15:24:23.016Z,5.20
2023-05-02T15:26:51.424Z,2.33
2023-05-02T15:29:19.873Z,5.13
2023-05-02T15:31:48.254Z,3.10
2023-05-02T15:34:18.014Z,3.57
2023-05-02T15:36:46.308Z,7.17
2023-05-02T15:39:14.644Z,5.63
2023-05-02T15:41:43.612Z,8.03
2023-05-02T15:44:11.948Z,10.20
2023-05-02T15:46:41.065Z,5.77
2023-05-02T15:49:09.474Z,3.77
2023-05-02T15:51:39.094Z,4.40
2023-05-02T15:54:07.742Z,5.03
2023-05-02T15:56:36.151Z,3.80
2023-05-02T15:59:04.564Z,4.57
2023-05-02T16:01:32.943Z,4.70
2023-05-02T16:04:01.343Z,5.70
2023-05-02T16:06:31.022Z,7.50
2023-05-02T16:09:02.878Z,7.80
2023-05-02T16:11:31.964Z,6.30
2023-05-02T16:14:00.703Z,6.00
2023-05-02T16:16:29.430Z,2.93
2023-05-02T16:18:57.711Z,6.50
2023-05-02T16:21:26.172Z,4.50
2023-05-02T16:23:55.064Z,5.43
2023-05-02T16:26:24.746Z,7.00
2023-05-02T16:28:53.195Z,6.17
2023-05-02T16:31:21.613Z,3.60
2023-05-02T16:33:50.920Z,3.30
2023-05-02T16:36:19.770Z,3.70
2023-05-02T16:38:48.104Z,3.93
2023-05-02T16:41:16.411Z,3.47
2023-05-02T16:43:46.912Z,3.83
2023-05-02T16:46:15.168Z,4.10
2023-05-02T16:48:43.512Z,7.17
2023-05-02T16:51:11.782Z,3.00
2023-05-02T16:53:40.105Z,4.10
2023-05-02T16:56:08.945Z,4.23
2023-05-02T16:58:37.213Z,3.10
2023-05-02T17:01:07.198Z,3.27
2023-05-02T17:03:35.667Z,10.17
2023-05-02T17:06:04.277Z,8.37
2023-05-02T17:08:32.825Z,10.07
2023-05-02T17:11:01.486Z,4.60
2023-05-02T17:13:29.781Z,6.33
2023-05-02T17:15:58.270Z,10.43
2023-05-02T17:18:28.266Z,6.10
2023-05-02T17:20:56.767Z,4.23
2023-05-02T17:23:25.403Z,5.40
2023-05-02T17:25:53.589Z,4.80
2023-05-02T17:28:22.031Z,6.67
2023-05-02T17:30:54.570Z,7.10
2023-05-02T17:33:23.152Z,4.43
2023-05-02T17:35:52.908Z,3.63
2023-05-02T17:38:21.352Z,3.00
2023-05-02T17:40:49.653Z,6.50
2023-05-02T17:43:18.009Z,3.87
2023-05-02T17:45:46.544Z,2.47
2023-05-02T17:48:15.179Z,3.90
2023-05-02T17:50:44.226Z,6.63
2023-05-02T17:53:15.523Z,4.27
2023-05-02T17:55:44.091Z,3.13
2023-05-02T17:58:12.449Z,5.40
2023-05-02T18:00:40.840Z,3.20
2023-05-02T18:03:09.247Z,7.47
2023-05-02T18:05:41.065Z,6.67
2023-05-02T18:08:09.347Z,9.87
2023-05-02T18:10:39.516Z,7.40
2023-05-02T18:13:07.943Z,6.07
2023-05-02T18:15:36.254Z,4.50
2023-05-02T18:18:04.825Z,3.53
2023-05-02T18:20:33.333Z,3.63
2023-05-02T18:23:02.331Z,7.70
2023-05-02T18:25:34.497Z,2.80
2023-05-02T18:28:04.235Z,4.00
2023-05-02T18:30:32.639Z,3.80
2023-05-02T18:33:01.523Z,7.10
2023-05-02T18:35:30.154Z,2.70
2023-05-02T18:37:58.610Z,4.60
2023-05-02T18:40:27.278Z,3.63
2023-05-02T18:42:55.611Z,6.20
2023-05-02T18:45:25.478Z,3.60
2023-05-02T18:47:54.273Z,10.60
2023-05-02T18:50:23.147Z,5.77
2023-05-02T18:52:51.543Z,5.90
2023-05-02T18:55:22.728Z,4.70
2023-05-02T18:57:51.804Z,6.80
2023-05-02T19:00:20.945Z,6.50
2023-05-02T19:02:53.481Z,7.70
2023-05-02T19:05:21.787Z,4.33
2023-05-02T19:07:50.122Z,6.13
2023-05-02T19:10:18.606Z,4.20
2023-05-02T19:12:47.843Z,3.90
2023-05-02T19:15:16.470Z,3.70
2023-05-02T19:17:45.343Z,4.40
2023-05-02T19:20:15.519Z,5.47
2023-05-02T19:22:46.152Z,3.97
2023-05-02T19:25:15.093Z,5.97
2023-05-02T19:27:47.764Z,6.37
2023-05-02T19:30:16.421Z,3.10
2023-05-02T19:32:44.790Z,8.17
2023-05-02T19:35:15.656Z,4.33
2023-05-02T19:37:44.671Z,4.57
2023-05-02T19:40:14.129Z,4.73
2023-05-02T19:42:42.474Z,7.67
2023-05-02T19:45:13.905Z,7.97
2023-05-02T19:47:43.891Z,6.90
2023-05-02T19:50:14.122Z,8.50
2023-05-02T19:52:44.510Z,6.77
2023-05-02T19:55:12.835Z,8.57
2023-05-02T19:57:44.189Z,9.33
2023-05-02T20:00:14.100Z,16.90
2023-05-02T20:02:42.554Z,12.60
2023-05-02T20:05:11.411Z,14.37
2023-05-02T20:07:41.568Z,13.60
2023-05-02T20:10:10.836Z,14.17
2023-05-02T20:12:39.222Z,14.57
2023-05-02T20:15:08.453Z,14.30
2023-05-02T20:17:36.825Z,10.67
2023-05-02T20:20:08.202Z,9.40
2023-05-02T20:22:36.566Z,7.47
2023-05-02T20:25:07.329Z,6.20
2023-05-02T20:27:35.805Z,4.80
2023-05-02T20:30:04.847Z,6.80
2023-05-02T20:32:33.341Z,4.37
2023-05-02T20:35:01.690Z,4.90
2023-05-02T20:37:30.790Z,5.40
2023-05-02T20:39:59.528Z,5.80
2023-05-02T20:42:29.445Z,6.10
2023-05-02T20:44:58.688Z,4.77
2023-05-02T20:47:28.675Z,6.13
2023-05-02T20:49:57.825Z,5.63
2023-05-02T20:52:26.241Z,7.83
2023-05-02T20:54:55.601Z,6.93
2023-05-02T20:57:24.440Z,7.80
2023-05-02T20:59:54.535Z,6.77
2023-05-02T21:02:22.987Z,7.40
2023-05-02T21:04:51.299Z,5.73
2023-05-02T21:07:19.761Z,7.03
2023-05-02T21:09:48.350Z,7.90
2023-05-02T21:12:16.667Z,6.63
2023-05-02T21:14:45.060Z,3.63
2023-05-02T21:17:14.731Z,5.33
2023-05-02T21:19:43.164Z,5.03
2023-05-02T21:22:11.553Z,5.60
2023-05-02T21:24:39.879Z,5.67
2023-05-02T21:27:08.283Z,5.47
2023-05-02T21:29:36.782Z,3.43
2023-05-02T21:32:06.003Z,10.37
2023-05-02T21:34:35.862Z,9.10
2023-05-02T21:37:04.255Z,8.70
2023-05-02T21:39:32.717Z,8.20
2023-05-02T21:42:01.491Z,7.00
2023-05-02T21:44:29.857Z,5.60
2023-05-02T21:46:58.256Z,4.73
2023-05-02T21:49:26.761Z,6.40
2023-05-02T21:51:58.672Z,8.17
2023-05-02T21:54:27.312Z,7.43
2023-05-02T21:56:56.164Z,7.43
2023-05-02T21:59:24.497Z,6.33
2023-05-02T22:01:52.799Z,5.17
2023-05-02T22:04:21.338Z,7.33
2023-05-02T22:06:53.440Z,8.37
2023-05-02T22:09:23.193Z,6.67
2023-05-02T22:11:51.451Z,7.73
2023-05-02T22:14:20.896Z,3.30
2023-05-02T22:16:50.958Z,5.07
2023-05-02T22:19:19.351Z,4.67
2023-05-02T22:21:47.726Z,4.50
2023-05-02T22:24:16.749Z,5.27
2023-05-02T22:26:48.659Z,3.70
2023-05-02T22:29:16.923Z,4.70
2023-05-02T22:31:47.189Z,4.60
2023-05-02T22:34:15.861Z,3.83
2023-05-02T22:36:44.369Z,5.47
2023-05-02T22:39:14.593Z,4.77
2023-05-02T22:41:43.734Z,3.83
2023-05-02T22:44:13.556Z,4.13
2023-05-02T22:46:41.864Z,3.10
2023-05-02T22:49:10.616Z,5.40
2023-05-02T22:51:40.171Z,4.83
2023-05-02T22:54:08.898Z,3.60
2023-05-02T22:56:37.318Z,2.73
2023-05-02T22:59:05.621Z,5.00
2023-05-02T23:01:35.447Z,3.73
2023-05-02T23:04:04.485Z,4.03
2023-05-02T23:06:32.953Z,4.50
2023-05-02T23:09:01.334Z,6.33
2023-05-02T23:11:29.720Z,2.80
2023-05-02T23:13:57.982Z,2.90
2023-05-02T23:16:26.539Z,2.77
2023-05-02T23:18:56.258Z,5.17
2023-05-02T23:21:24.806Z,5.10
2023-05-02T23:23:53.183Z,3.70
2023-05-02T23:26:21.433Z,3.50
2023-05-02T23:28:49.670Z,2.67
2023-05-02T23:31:18.084Z,5.23
2023-05-02T23:33:47.013Z,3.30
2023-05-02T23:36:16.814Z,2.77
2023-05-02T23:38:45.177Z,4.47
2023-05-02T23:41:13.446Z,3.17
2023-05-02T23:43:42.027Z,3.73
2023-05-02T23:46:10.360Z,6.00
2023-05-02T23:48:38.660Z,4.67
2023-05-02T23:51:07.059Z,5.17
2023-05-02T23:53:36.701Z,4.70
2023-05-02T23:56:05.226Z,4.80
2023-05-02T23:58:33.607Z,3.27
